Terminal Aerodrome Forecast
Issued by NWS Brownsville, TX

Home | Current Version | Previous Version | Text Only | Print | Product List | Glossary On
Versions: 1 2 3 4 5 6 7 8 9 10 11 12 13 14 15
000
FTUS44 KBRO 121720
TAFBRO
TAF
KBRO 121720Z 1218/1318 16013G19KT P6SM FEW050
     FM130200 14005KT P6SM FEW250
     FM130600 VRB03KT 5SM BR FEW250
     FM131000 15003KT 1SM BR VV006
     FM131500 16005KT 6SM BR SCT006=

USA.gov is the U.S. government's official web portal to all federal, state and local government web resources and services.